sensor_id;sensor_type;location;lat;lon;timestamp;temperature;humidity
27848;DHT22;15212;48.830;8.730;2023-11-21T00:01:36;6.90;99.90
27848;DHT22;15212;48.830;8.730;2023-11-21T00:04:05;6.90;99.90
27848;DHT22;15212;48.830;8.730;2023-11-21T00:06:34;6.90;99.90
27848;DHT22;15212;48.830;8.730;2023-11-21T00:09:02;6.90;99.90
27848;DHT22;15212;48.830;8.730;2023-11-21T00:11:31;7.00;99.90
27848;DHT22;15212;48.830;8.730;2023-11-21T00:14:00;7.00;99.90
27848;DHT22;15212;48.830;8.730;2023-11-21T00:16:29;7.00;99.90
27848;DHT22;15212;48.830;8.730;2023-11-21T00:18:57;7.00;99.90
27848;DHT22;15212;48.830;8.730;2023-11-21T00:21:26;7.10;99.90
27848;DHT22;15212;48.830;8.730;2023-11-21T00:23:54;7.10;99.90
27848;DHT22;15212;48.830;8.730;2023-11-21T00:26:23;7.10;99.90
27848;DHT22;15212;48.830;8.730;2023-11-21T00:28:51;7.10;99.90
27848;DHT22;15212;48.830;8.730;2023-11-21T00:31:19;7.20;99.90
27848;DHT22;15212;48.830;8.730;2023-11-21T00:33:48;7.20;99.90
27848;DHT22;15212;48.830;8.730;2023-11-21T00:36:17;7.20;99.90
27848;DHT22;15212;48.830;8.730;2023-11-21T00:38:45;7.20;99.90
27848;DHT22;15212;48.830;8.730;2023-11-21T00:41:14;7.20;99.90
27848;DHT22;15212;48.830;8.730;2023-11-21T00:43:43;7.20;99.90
27848;DHT22;15212;48.830;8.730;2023-11-21T00:46:12;7.30;99.90
27848;DHT22;15212;48.830;8.730;2023-11-21T00:48:40;7.30;99.90
27848;DHT22;15212;48.830;8.730;2023-11-21T00:51:09;7.30;99.90
27848;DHT22;15212;48.830;8.730;2023-11-21T00:53:37;7.30;99.90
27848;DHT22;15212;48.830;8.730;2023-11-21T00:56:06;7.30;99.90
27848;DHT22;15212;48.830;8.730;2023-11-21T00:58:35;7.30;99.90
27848;DHT22;15212;48.830;8.730;2023-11-21T01:01:03;7.30;99.90
27848;DHT22;15212;48.830;8.730;2023-11-21T01:03:32;7.20;99.90
27848;DHT22;15212;48.830;8.730;2023-11-21T01:06:00;7.30;99.90
27848;DHT22;15212;48.830;8.730;2023-11-21T01:08:29;7.30;99.90
27848;DHT22;15212;48.830;8.730;2023-11-21T01:10:57;7.30;99.90
27848;DHT22;15212;48.830;8.730;2023-11-21T01:13:26;7.30;99.90
27848;DHT22;15212;48.830;8.730;2023-11-21T01:15:55;7.40;99.90
27848;DHT22;15212;48.830;8.730;2023-11-21T01:18:23;7.40;99.90
27848;DHT22;15212;48.830;8.730;2023-11-21T01:20:55;7.40;99.90
27848;DHT22;15212;48.830;8.730;2023-11-21T01:23:24;7.40;99.90
27848;DHT22;15212;48.830;8.730;2023-11-21T01:25:55;7.40;99.90
27848;DHT22;15212;48.830;8.730;2023-11-21T01:28:24;7.40;99.90
27848;DHT22;15212;48.830;8.730;2023-11-21T01:30:53;7.40;99.90
27848;DHT22;15212;48.830;8.730;2023-11-21T01:33:23;7.40;99.90
27848;DHT22;15212;48.830;8.730;2023-11-21T01:35:51;7.50;99.90
27848;DHT22;15212;48.830;8.730;2023-11-21T01:38:22;7.50;99.90
27848;DHT22;15212;48.830;8.730;2023-11-21T01:40:51;7.50;99.90
27848;DHT22;15212;48.830;8.730;2023-11-21T01:43:20;7.50;99.90
27848;DHT22;15212;48.830;8.730;2023-11-21T01:45:48;7.50;99.90
27848;DHT22;15212;48.830;8.730;2023-11-21T01:48:17;7.50;99.90
27848;DHT22;15212;48.830;8.730;2023-11-21T01:50:46;7.50;99.90
27848;DHT22;15212;48.830;8.730;2023-11-21T01:53:15;7.50;99.90
27848;DHT22;15212;48.830;8.730;2023-11-21T01:55:45;7.50;99.90
27848;DHT22;15212;48.830;8.730;2023-11-21T01:58:14;7.50;99.90
27848;DHT22;15212;48.830;8.730;2023-11-21T02:00:43;7.50;99.90
27848;DHT22;15212;48.830;8.730;2023-11-21T02:03:11;7.50;99.90
27848;DHT22;15212;48.830;8.730;2023-11-21T02:05:39;7.50;99.90
27848;DHT22;15212;48.830;8.730;2023-11-21T02:08:08;7.50;99.90
27848;DHT22;15212;48.830;8.730;2023-11-21T02:10:36;7.50;99.90
27848;DHT22;15212;48.830;8.730;2023-11-21T02:13:05;7.50;99.90
27848;DHT22;15212;48.830;8.730;2023-11-21T02:15:33;7.40;99.90
27848;DHT22;15212;48.830;8.730;2023-11-21T02:18:02;7.40;99.90
27848;DHT22;15212;48.830;8.730;2023-11-21T02:20:32;7.40;99.90
27848;DHT22;15212;48.830;8.730;2023-11-21T02:23:02;7.40;99.90
27848;DHT22;15212;48.830;8.730;2023-11-21T02:25:32;7.40;99.90
27848;DHT22;15212;48.830;8.730;2023-11-21T02:28:03;7.40;99.90
27848;DHT22;15212;48.830;8.730;2023-11-21T02:30:33;7.40;99.90
27848;DHT22;15212;48.830;8.730;2023-11-21T02:33:02;7.40;99.90
27848;DHT22;15212;48.830;8.730;2023-11-21T02:35:32;7.40;99.90
27848;DHT22;15212;48.830;8.730;2023-11-21T02:38:02;7.40;99.90
27848;DHT22;15212;48.830;8.730;2023-11-21T02:40:30;7.30;99.90
27848;DHT22;15212;48.830;8.730;2023-11-21T02:42:59;7.30;99.90
27848;DHT22;15212;48.830;8.730;2023-11-21T02:45:27;7.30;99.90
27848;DHT22;15212;48.830;8.730;2023-11-21T02:47:55;7.30;99.90
27848;DHT22;15212;48.830;8.730;2023-11-21T02:50:24;7.30;99.90
27848;DHT22;15212;48.830;8.730;2023-11-21T02:52:53;7.30;99.90
27848;DHT22;15212;48.830;8.730;2023-11-21T02:55:23;7.20;99.90
27848;DHT22;15212;48.830;8.730;2023-11-21T02:57:51;7.20;99.90
27848;DHT22;15212;48.830;8.730;2023-11-21T03:00:20;7.20;99.90
27848;DHT22;15212;48.830;8.730;2023-11-21T03:02:50;7.20;99.90
27848;DHT22;15212;48.830;8.730;2023-11-21T03:05:18;7.20;99.90
27848;DHT22;15212;48.830;8.730;2023-11-21T03:07:48;7.20;99.90
27848;DHT22;15212;48.830;8.730;2023-11-21T03:10:16;7.20;99.90
27848;DHT22;15212;48.830;8.730;2023-11-21T03:12:45;7.20;99.90
27848;DHT22;15212;48.830;8.730;2023-11-21T03:15:14;7.20;99.90
27848;DHT22;15212;48.830;8.730;2023-11-21T03:17:42;7.20;99.90
27848;DHT22;15212;48.830;8.730;2023-11-21T03:20:11;7.10;99.90
27848;DHT22;15212;48.830;8.730;2023-11-21T03:22:40;7.10;99.90
27848;DHT22;15212;48.830;8.730;2023-11-21T03:25:08;7.10;99.90
27848;DHT22;15212;48.830;8.730;2023-11-21T03:27:37;7.10;99.90
27848;DHT22;15212;48.830;8.730;2023-11-21T03:30:07;7.10;99.90
27848;DHT22;15212;48.830;8.730;2023-11-21T03:32:37;7.10;99.90
27848;DHT22;15212;48.830;8.730;2023-11-21T03:35:06;7.10;99.90
27848;DHT22;15212;48.830;8.730;2023-11-21T03:37:34;7.10;99.90
27848;DHT22;15212;48.830;8.730;2023-11-21T03:40:06;7.10;99.90
27848;DHT22;15212;48.830;8.730;2023-11-21T03:42:35;7.10;99.90
27848;DHT22;15212;48.830;8.730;2023-11-21T03:45:05;7.10;99.90
27848;DHT22;15212;48.830;8.730;2023-11-21T03:47:34;7.10;99.90
27848;DHT22;15212;48.830;8.730;2023-11-21T03:50:02;7.10;99.90
27848;DHT22;15212;48.830;8.730;2023-11-21T03:52:31;7.10;99.90
27848;DHT22;15212;48.830;8.730;2023-11-21T03:54:59;7.10;99.90
27848;DHT22;15212;48.830;8.730;2023-11-21T03:57:28;7.10;99.90
27848;DHT22;15212;48.830;8.730;2023-11-21T03:59:56;7.10;99.90
27848;DHT22;15212;48.830;8.730;2023-11-21T04:02:24;7.10;99.90
27848;DHT22;15212;48.830;8.730;2023-11-21T04:04:54;7.10;99.90
27848;DHT22;15212;48.830;8.730;2023-11-21T04:07:23;7.10;99.90
27848;DHT22;15212;48.830;8.730;2023-11-21T04:09:51;7.10;99.90
27848;DHT22;15212;48.830;8.730;2023-11-21T04:12:20;7.10;99.90
27848;DHT22;15212;48.830;8.730;2023-11-21T04:14:48;7.10;99.90
27848;DHT22;15212;48.830;8.730;2023-11-21T04:17:20;7.10;99.90
27848;DHT22;15212;48.830;8.730;2023-11-21T04:19:48;7.10;99.90
27848;DHT22;15212;48.830;8.730;2023-11-21T04:22:16;7.10;99.90
27848;DHT22;15212;48.830;8.730;2023-11-21T04:24:45;7.10;99.90
27848;DHT22;15212;48.830;8.730;2023-11-21T04:27:13;7.10;99.90
27848;DHT22;15212;48.830;8.730;2023-11-21T04:29:43;7.20;99.90
27848;DHT22;15212;48.830;8.730;2023-11-21T04:32:12;7.20;99.90
27848;DHT22;15212;48.830;8.730;2023-11-21T04:34:40;7.20;99.90
27848;DHT22;15212;48.830;8.730;2023-11-21T04:37:08;7.20;99.90
27848;DHT22;15212;48.830;8.730;2023-11-21T04:39:37;7.10;99.90
27848;DHT22;15212;48.830;8.730;2023-11-21T04:42:05;7.20;99.90
27848;DHT22;15212;48.830;8.730;2023-11-21T04:44:34;7.10;99.90
27848;DHT22;15212;48.830;8.730;2023-11-21T04:47:02;7.10;99.90
27848;DHT22;15212;48.830;8.730;2023-11-21T04:49:31;7.10;99.90
27848;DHT22;15212;48.830;8.730;2023-11-21T04:51:59;7.20;99.90
27848;DHT22;15212;48.830;8.730;2023-11-21T04:54:31;7.20;99.90
27848;DHT22;15212;48.830;8.730;2023-11-21T04:56:59;7.20;99.90
27848;DHT22;15212;48.830;8.730;2023-11-21T04:59:27;7.20;99.90
27848;DHT22;15212;48.830;8.730;2023-11-21T05:01:56;7.20;99.90
27848;DHT22;15212;48.830;8.730;2023-11-21T05:04:26;7.20;99.90
27848;DHT22;15212;48.830;8.730;2023-11-21T05:06:54;7.20;99.90
27848;DHT22;15212;48.830;8.730;2023-11-21T05:09:23;7.20;99.90
27848;DHT22;15212;48.830;8.730;2023-11-21T05:11:51;7.20;99.90
27848;DHT22;15212;48.830;8.730;2023-11-21T05:14:20;7.10;99.90
27848;DHT22;15212;48.830;8.730;2023-11-21T05:16:48;7.20;99.90
27848;DHT22;15212;48.830;8.730;2023-11-21T05:19:17;7.10;99.90
27848;DHT22;15212;48.830;8.730;2023-11-21T05:21:46;7.10;99.90
27848;DHT22;15212;48.830;8.730;2023-11-21T05:24:14;7.10;99.90
27848;DHT22;15212;48.830;8.730;2023-11-21T05:26:42;7.10;99.90
27848;DHT22;15212;48.830;8.730;2023-11-21T05:29:11;7.10;99.90
27848;DHT22;15212;48.830;8.730;2023-11-21T05:31:39;7.10;99.90
27848;DHT22;15212;48.830;8.730;2023-11-21T05:34:07;7.10;99.90
27848;DHT22;15212;48.830;8.730;2023-11-21T05:36:36;7.00;99.90
27848;DHT22;15212;48.830;8.730;2023-11-21T05:39:04;7.00;99.90
27848;DHT22;15212;48.830;8.730;2023-11-21T05:41:32;7.00;99.90
27848;DHT22;15212;48.830;8.730;2023-11-21T05:44:01;7.00;99.90
27848;DHT22;15212;48.830;8.730;2023-11-21T05:46:29;7.00;99.90
27848;DHT22;15212;48.830;8.730;2023-11-21T05:48:58;7.00;99.90
27848;DHT22;15212;48.830;8.730;2023-11-21T05:51:26;7.00;99.90
27848;DHT22;15212;48.830;8.730;2023-11-21T05:53:55;7.00;99.90
27848;DHT22;15212;48.830;8.730;2023-11-21T05:56:23;7.00;99.90
27848;DHT22;15212;48.830;8.730;2023-11-21T05:58:51;7.00;99.90
27848;DHT22;15212;48.830;8.730;2023-11-21T06:01:20;7.00;99.90
27848;DHT22;15212;48.830;8.730;2023-11-21T06:03:49;6.90;99.90
27848;DHT22;15212;48.830;8.730;2023-11-21T06:06:17;6.90;99.90
27848;DHT22;15212;48.830;8.730;2023-11-21T06:08:46;6.90;99.90
27848;DHT22;15212;48.830;8.730;2023-11-21T06:11:14;6.90;99.90
27848;DHT22;15212;48.830;8.730;2023-11-21T06:13:43;6.90;99.90
27848;DHT22;15212;48.830;8.730;2023-11-21T06:16:12;6.90;99.90
27848;DHT22;15212;48.830;8.730;2023-11-21T06:18:42;6.90;99.90
27848;DHT22;15212;48.830;8.730;2023-11-21T06:21:11;7.00;99.90
27848;DHT22;15212;48.830;8.730;2023-11-21T06:23:41;7.00;99.90
27848;DHT22;15212;48.830;8.730;2023-11-21T06:26:10;7.00;99.90
27848;DHT22;15212;48.830;8.730;2023-11-21T06:28:39;7.00;99.90
27848;DHT22;15212;48.830;8.730;2023-11-21T06:31:07;7.00;99.90
27848;DHT22;15212;48.830;8.730;2023-11-21T06:33:37;7.00;99.90
27848;DHT22;15212;48.830;8.730;2023-11-21T06:36:06;7.10;99.90
27848;DHT22;15212;48.830;8.730;2023-11-21T06:38:35;7.10;99.90
27848;DHT22;15212;48.830;8.730;2023-11-21T06:41:03;7.10;99.90
27848;DHT22;15212;48.830;8.730;2023-11-21T06:43:32;7.10;99.90
27848;DHT22;15212;48.830;8.730;2023-11-21T06:46:00;7.10;99.90
27848;DHT22;15212;48.830;8.730;2023-11-21T06:48:28;7.10;99.90
27848;DHT22;15212;48.830;8.730;2023-11-21T06:50:57;7.10;99.90
27848;DHT22;15212;48.830;8.730;2023-11-21T06:53:26;7.20;99.90
27848;DHT22;15212;48.830;8.730;2023-11-21T06:55:54;7.20;99.90
27848;DHT22;15212;48.830;8.730;2023-11-21T06:58:22;7.20;99.90
27848;DHT22;15212;48.830;8.730;2023-11-21T07:00:51;7.10;99.90
27848;DHT22;15212;48.830;8.730;2023-11-21T07:03:19;7.20;99.90
27848;DHT22;15212;48.830;8.730;2023-11-21T07:05:47;7.20;99.90
27848;DHT22;15212;48.830;8.730;2023-11-21T07:08:16;7.20;99.90
27848;DHT22;15212;48.830;8.730;2023-11-21T07:10:44;7.10;99.90
27848;DHT22;15212;48.830;8.730;2023-11-21T07:13:13;7.10;99.90
27848;DHT22;15212;48.830;8.730;2023-11-21T07:15:42;7.10;99.90
27848;DHT22;15212;48.830;8.730;2023-11-21T07:18:10;7.10;99.90
27848;DHT22;15212;48.830;8.730;2023-11-21T07:20:39;7.10;99.90
27848;DHT22;15212;48.830;8.730;2023-11-21T07:23:07;7.00;99.90
27848;DHT22;15212;48.830;8.730;2023-11-21T07:25:35;7.10;99.90
27848;DHT22;15212;48.830;8.730;2023-11-21T07:28:04;7.10;99.90
27848;DHT22;15212;48.830;8.730;2023-11-21T07:30:32;7.10;99.90
27848;DHT22;15212;48.830;8.730;2023-11-21T07:33:00;7.10;99.90
27848;DHT22;15212;48.830;8.730;2023-11-21T07:35:29;7.10;99.90
27848;DHT22;15212;48.830;8.730;2023-11-21T07:37:57;7.10;99.90
27848;DHT22;15212;48.830;8.730;2023-11-21T07:40:26;7.20;99.90
27848;DHT22;15212;48.830;8.730;2023-11-21T07:42:54;7.20;99.90
27848;DHT22;15212;48.830;8.730;2023-11-21T07:45:23;7.20;99.90
27848;DHT22;15212;48.830;8.730;2023-11-21T07:47:54;7.30;99.90
27848;DHT22;15212;48.830;8.730;2023-11-21T07:50:23;7.30;99.90
27848;DHT22;15212;48.830;8.730;2023-11-21T07:52:52;7.40;99.90
27848;DHT22;15212;48.830;8.730;2023-11-21T07:55:21;7.40;99.90
27848;DHT22;15212;48.830;8.730;2023-11-21T07:57:49;7.50;99.90
27848;DHT22;15212;48.830;8.730;2023-11-21T08:00:18;7.50;99.90
27848;DHT22;15212;48.830;8.730;2023-11-21T08:02:47;7.50;99.90
27848;DHT22;15212;48.830;8.730;2023-11-21T08:05:16;7.60;99.90
27848;DHT22;15212;48.830;8.730;2023-11-21T08:07:44;7.60;99.90
27848;DHT22;15212;48.830;8.730;2023-11-21T08:10:13;7.60;99.90
27848;DHT22;15212;48.830;8.730;2023-11-21T08:12:41;7.60;99.90
27848;DHT22;15212;48.830;8.730;2023-11-21T08:15:09;7.60;99.90
27848;DHT22;15212;48.830;8.730;2023-11-21T08:17:38;7.60;99.90
27848;DHT22;15212;48.830;8.730;2023-11-21T08:20:06;7.60;99.90
27848;DHT22;15212;48.830;8.730;2023-11-21T08:22:37;7.70;99.90
27848;DHT22;15212;48.830;8.730;2023-11-21T08:25:07;7.70;99.90
27848;DHT22;15212;48.830;8.730;2023-11-21T08:27:36;7.70;99.90
27848;DHT22;15212;48.830;8.730;2023-11-21T08:30:05;7.70;99.90
27848;DHT22;15212;48.830;8.730;2023-11-21T08:32:34;7.70;99.90
27848;DHT22;15212;48.830;8.730;2023-11-21T08:35:03;7.70;99.90
27848;DHT22;15212;48.830;8.730;2023-11-21T08:37:32;7.80;99.90
27848;DHT22;15212;48.830;8.730;2023-11-21T08:40:03;7.80;99.90
27848;DHT22;15212;48.830;8.730;2023-11-21T08:42:34;7.90;99.90
27848;DHT22;15212;48.830;8.730;2023-11-21T08:45:03;7.90;99.90
27848;DHT22;15212;48.830;8.730;2023-11-21T08:47:32;7.90;99.90
27848;DHT22;15212;48.830;8.730;2023-11-21T08:50:01;7.90;99.90
27848;DHT22;15212;48.830;8.730;2023-11-21T08:52:29;7.90;99.90
27848;DHT22;15212;48.830;8.730;2023-11-21T08:54:58;7.90;99.90
27848;DHT22;15212;48.830;8.730;2023-11-21T08:57:28;7.90;99.90
27848;DHT22;15212;48.830;8.730;2023-11-21T08:59:56;7.90;99.90
27848;DHT22;15212;48.830;8.730;2023-11-21T09:02:27;7.90;99.90
27848;DHT22;15212;48.830;8.730;2023-11-21T09:04:56;7.90;99.90
27848;DHT22;15212;48.830;8.730;2023-11-21T09:07:25;7.80;99.90
27848;DHT22;15212;48.830;8.730;2023-11-21T09:09:53;7.80;99.90
27848;DHT22;15212;48.830;8.730;2023-11-21T09:12:22;7.80;99.90
27848;DHT22;15212;48.830;8.730;2023-11-21T09:14:51;7.80;99.90
27848;DHT22;15212;48.830;8.730;2023-11-21T09:17:20;7.80;99.90
27848;DHT22;15212;48.830;8.730;2023-11-21T09:19:48;7.80;99.90
27848;DHT22;15212;48.830;8.730;2023-11-21T09:22:18;7.80;99.90
27848;DHT22;15212;48.830;8.730;2023-11-21T09:24:46;7.80;99.90
27848;DHT22;15212;48.830;8.730;2023-11-21T09:27:15;7.80;99.90
27848;DHT22;15212;48.830;8.730;2023-11-21T09:29:44;7.80;99.90
27848;DHT22;15212;48.830;8.730;2023-11-21T09:32:14;7.70;99.90
27848;DHT22;15212;48.830;8.730;2023-11-21T09:34:45;7.80;99.90
27848;DHT22;15212;48.830;8.730;2023-11-21T09:37:13;7.70;99.90
27848;DHT22;15212;48.830;8.730;2023-11-21T09:39:41;7.70;99.90
27848;DHT22;15212;48.830;8.730;2023-11-21T09:42:19;7.70;99.90
27848;DHT22;15212;48.830;8.730;2023-11-21T09:47:40;7.70;99.90
27848;DHT22;15212;48.830;8.730;2023-11-21T09:50:09;7.80;99.90
27848;DHT22;15212;48.830;8.730;2023-11-21T09:52:55;7.70;99.90
27848;DHT22;15212;48.830;8.730;2023-11-21T09:55:16;7.80;99.90
27848;DHT22;15212;48.830;8.730;2023-11-21T09:57:49;7.80;99.90
27848;DHT22;15212;48.830;8.730;2023-11-21T10:00:19;7.80;99.90
27848;DHT22;15212;48.830;8.730;2023-11-21T10:02:50;7.90;99.90
27848;DHT22;15212;48.830;8.730;2023-11-21T10:05:19;7.80;99.90
27848;DHT22;15212;48.830;8.730;2023-11-21T10:07:50;7.80;99.90
27848;DHT22;15212;48.830;8.730;2023-11-21T10:10:19;7.70;99.90
27848;DHT22;15212;48.830;8.730;2023-11-21T10:12:54;7.80;99.90
27848;DHT22;15212;48.830;8.730;2023-11-21T10:15:23;7.70;99.90
27848;DHT22;15212;48.830;8.730;2023-11-21T10:17:53;7.70;99.90
27848;DHT22;15212;48.830;8.730;2023-11-21T10:20:26;7.70;99.90
27848;DHT22;15212;48.830;8.730;2023-11-21T10:22:55;7.70;99.90
27848;DHT22;15212;48.830;8.730;2023-11-21T10:25:24;7.80;99.90
27848;DHT22;15212;48.830;8.730;2023-11-21T10:27:58;7.80;99.90
27848;DHT22;15212;48.830;8.730;2023-11-21T10:30:38;7.70;99.90
27848;DHT22;15212;48.830;8.730;2023-11-21T10:33:07;7.60;99.90
27848;DHT22;15212;48.830;8.730;2023-11-21T10:35:45;7.60;99.90
27848;DHT22;15212;48.830;8.730;2023-11-21T10:38:16;7.60;99.90
27848;DHT22;15212;48.830;8.730;2023-11-21T10:40:46;7.60;99.90
27848;DHT22;15212;48.830;8.730;2023-11-21T10:43:16;7.60;99.90
27848;DHT22;15212;48.830;8.730;2023-11-21T10:45:45;7.60;99.90
27848;DHT22;15212;48.830;8.730;2023-11-21T10:48:14;7.60;99.90
27848;DHT22;15212;48.830;8.730;2023-11-21T10:50:47;7.70;99.90
27848;DHT22;15212;48.830;8.730;2023-11-21T10:53:15;7.70;99.90
27848;DHT22;15212;48.830;8.730;2023-11-21T10:55:45;7.60;99.90
27848;DHT22;15212;48.830;8.730;2023-11-21T10:58:14;7.60;99.90
27848;DHT22;15212;48.830;8.730;2023-11-21T11:00:44;7.70;99.90
27848;DHT22;15212;48.830;8.730;2023-11-21T11:03:13;7.80;99.90
27848;DHT22;15212;48.830;8.730;2023-11-21T11:05:44;7.80;99.90
27848;DHT22;15212;48.830;8.730;2023-11-21T11:08:17;7.70;99.90
27848;DHT22;15212;48.830;8.730;2023-11-21T11:10:47;7.80;99.90
27848;DHT22;15212;48.830;8.730;2023-11-21T11:13:18;7.80;99.90
27848;DHT22;15212;48.830;8.730;2023-11-21T11:15:49;7.70;99.90
27848;DHT22;15212;48.830;8.730;2023-11-21T11:18:17;7.70;99.90
27848;DHT22;15212;48.830;8.730;2023-11-21T11:20:48;7.70;99.90
27848;DHT22;15212;48.830;8.730;2023-11-21T11:23:27;7.70;99.90
27848;DHT22;15212;48.830;8.730;2023-11-21T11:26:08;7.80;99.90
27848;DHT22;15212;48.830;8.730;2023-11-21T11:31:48;7.80;99.90
27848;DHT22;15212;48.830;8.730;2023-11-21T11:34:29;7.80;99.90
27848;DHT22;15212;48.830;8.730;2023-11-21T11:37:07;7.70;99.90
27848;DHT22;15212;48.830;8.730;2023-11-21T11:39:38;7.80;99.90
27848;DHT22;15212;48.830;8.730;2023-11-21T11:42:12;7.80;99.90
27848;DHT22;15212;48.830;8.730;2023-11-21T11:47:16;7.80;99.90
27848;DHT22;15212;48.830;8.730;2023-11-21T11:50:01;7.70;99.90
27848;DHT22;15212;48.830;8.730;2023-11-21T11:52:47;7.70;99.90
27848;DHT22;15212;48.830;8.730;2023-11-21T11:55:18;7.70;99.90
27848;DHT22;15212;48.830;8.730;2023-11-21T11:57:52;7.70;99.90
27848;DHT22;15212;48.830;8.730;2023-11-21T12:03:03;7.80;99.90
27848;DHT22;15212;48.830;8.730;2023-11-21T12:05:34;7.70;99.90
27848;DHT22;15212;48.830;8.730;2023-11-21T12:08:06;7.70;99.90
27848;DHT22;15212;48.830;8.730;2023-11-21T12:10:37;7.70;99.90
27848;DHT22;15212;48.830;8.730;2023-11-21T12:13:10;7.70;99.90
27848;DHT22;15212;48.830;8.730;2023-11-21T12:15:40;7.70;99.90
27848;DHT22;15212;48.830;8.730;2023-11-21T12:18:08;7.70;99.90
27848;DHT22;15212;48.830;8.730;2023-11-21T12:20:37;7.70;99.90
27848;DHT22;15212;48.830;8.730;2023-11-21T12:23:09;7.70;99.90
27848;DHT22;15212;48.830;8.730;2023-11-21T12:25:38;7.70;99.90
27848;DHT22;15212;48.830;8.730;2023-11-21T12:28:08;7.70;99.90
27848;DHT22;15212;48.830;8.730;2023-11-21T12:30:36;7.70;99.90
27848;DHT22;15212;48.830;8.730;2023-11-21T12:33:07;7.60;99.90
27848;DHT22;15212;48.830;8.730;2023-11-21T12:35:36;7.60;99.90
27848;DHT22;15212;48.830;8.730;2023-11-21T12:38:06;7.70;99.90
27848;DHT22;15212;48.830;8.730;2023-11-21T12:40:37;7.70;99.90
27848;DHT22;15212;48.830;8.730;2023-11-21T12:43:07;7.70;99.90
27848;DHT22;15212;48.830;8.730;2023-11-21T12:45:36;7.70;99.90
27848;DHT22;15212;48.830;8.730;2023-11-21T12:48:05;7.70;99.90
27848;DHT22;15212;48.830;8.730;2023-11-21T12:50:38;7.80;99.90
27848;DHT22;15212;48.830;8.730;2023-11-21T12:53:10;7.90;99.90
27848;DHT22;15212;48.830;8.730;2023-11-21T12:55:39;7.90;99.90
27848;DHT22;15212;48.830;8.730;2023-11-21T12:58:09;8.00;99.90
27848;DHT22;15212;48.830;8.730;2023-11-21T13:00:47;8.00;99.90
27848;DHT22;15212;48.830;8.730;2023-11-21T13:03:17;8.00;99.90
27848;DHT22;15212;48.830;8.730;2023-11-21T13:05:50;8.00;99.90
27848;DHT22;15212;48.830;8.730;2023-11-21T13:08:21;8.00;99.90
27848;DHT22;15212;48.830;8.730;2023-11-21T13:10:53;7.90;99.90
27848;DHT22;15212;48.830;8.730;2023-11-21T13:13:23;7.90;99.90
27848;DHT22;15212;48.830;8.730;2023-11-21T13:16:01;7.80;99.90
27848;DHT22;15212;48.830;8.730;2023-11-21T13:18:34;7.80;99.90
27848;DHT22;15212;48.830;8.730;2023-11-21T13:21:05;7.70;99.90
27848;DHT22;15212;48.830;8.730;2023-11-21T13:23:40;7.70;99.90
27848;DHT22;15212;48.830;8.730;2023-11-21T13:26:10;7.70;99.90
27848;DHT22;15212;48.830;8.730;2023-11-21T13:28:38;7.70;99.90
27848;DHT22;15212;48.830;8.730;2023-11-21T13:31:09;7.70;99.90
27848;DHT22;15212;48.830;8.730;2023-11-21T13:33:39;7.70;99.90
27848;DHT22;15212;48.830;8.730;2023-11-21T13:36:09;7.80;99.90
27848;DHT22;15212;48.830;8.730;2023-11-21T13:38:39;7.70;99.90
27848;DHT22;15212;48.830;8.730;2023-11-21T13:41:12;7.70;99.90
27848;DHT22;15212;48.830;8.730;2023-11-21T13:43:40;7.70;99.90
27848;DHT22;15212;48.830;8.730;2023-11-21T13:46:10;7.70;99.90
27848;DHT22;15212;48.830;8.730;2023-11-21T13:48:43;7.70;99.90
27848;DHT22;15212;48.830;8.730;2023-11-21T13:51:13;7.70;99.90
27848;DHT22;15212;48.830;8.730;2023-11-21T13:53:48;7.70;99.90
27848;DHT22;15212;48.830;8.730;2023-11-21T13:56:19;7.80;99.90
27848;DHT22;15212;48.830;8.730;2023-11-21T13:58:49;7.80;99.90
27848;DHT22;15212;48.830;8.730;2023-11-21T14:01:20;7.80;99.90
27848;DHT22;15212;48.830;8.730;2023-11-21T14:03:59;7.80;99.90
27848;DHT22;15212;48.830;8.730;2023-11-21T14:06:46;7.80;99.90
27848;DHT22;15212;48.830;8.730;2023-11-21T14:09:17;7.80;99.90
27848;DHT22;15212;48.830;8.730;2023-11-21T14:11:54;7.80;99.90
27848;DHT22;15212;48.830;8.730;2023-11-21T14:14:27;7.80;99.90
27848;DHT22;15212;48.830;8.730;2023-11-21T14:16:56;7.80;99.90
27848;DHT22;15212;48.830;8.730;2023-11-21T14:19:25;7.80;99.90
27848;DHT22;15212;48.830;8.730;2023-11-21T14:21:58;7.80;99.90
27848;DHT22;15212;48.830;8.730;2023-11-21T14:24:28;7.80;99.90
27848;DHT22;15212;48.830;8.730;2023-11-21T14:26:57;7.80;99.90
27848;DHT22;15212;48.830;8.730;2023-11-21T14:29:26;7.80;99.90
27848;DHT22;15212;48.830;8.730;2023-11-21T14:31:56;7.80;99.90
27848;DHT22;15212;48.830;8.730;2023-11-21T14:34:24;7.80;99.90
27848;DHT22;15212;48.830;8.730;2023-11-21T14:36:53;7.80;99.90
27848;DHT22;15212;48.830;8.730;2023-11-21T14:39:21;7.70;99.90
27848;DHT22;15212;48.830;8.730;2023-11-21T14:41:57;7.70;99.90
27848;DHT22;15212;48.830;8.730;2023-11-21T14:44:27;7.70;99.90
27848;DHT22;15212;48.830;8.730;2023-11-21T14:46:57;7.60;99.90
27848;DHT22;15212;48.830;8.730;2023-11-21T14:49:27;7.60;99.90
27848;DHT22;15212;48.830;8.730;2023-11-21T14:51:57;7.60;99.90
27848;DHT22;15212;48.830;8.730;2023-11-21T14:54:31;7.70;99.90
27848;DHT22;15212;48.830;8.730;2023-11-21T14:57:16;7.60;99.90
27848;DHT22;15212;48.830;8.730;2023-11-21T14:59:47;7.60;99.90
27848;DHT22;15212;48.830;8.730;2023-11-21T15:02:20;7.70;99.90
27848;DHT22;15212;48.830;8.730;2023-11-21T15:04:51;7.70;99.90
27848;DHT22;15212;48.830;8.730;2023-11-21T15:07:21;7.60;99.90
27848;DHT22;15212;48.830;8.730;2023-11-21T15:09:51;7.60;99.90
27848;DHT22;15212;48.830;8.730;2023-11-21T15:12:20;7.60;99.90
27848;DHT22;15212;48.830;8.730;2023-11-21T15:14:52;7.60;99.90
27848;DHT22;15212;48.830;8.730;2023-11-21T15:17:22;7.60;99.90
27848;DHT22;15212;48.830;8.730;2023-11-21T15:19:54;7.60;99.90
27848;DHT22;15212;48.830;8.730;2023-11-21T15:22:23;7.60;99.90
27848;DHT22;15212;48.830;8.730;2023-11-21T15:24:53;7.60;99.90
27848;DHT22;15212;48.830;8.730;2023-11-21T15:27:22;7.60;99.90
27848;DHT22;15212;48.830;8.730;2023-11-21T15:29:51;7.60;99.90
27848;DHT22;15212;48.830;8.730;2023-11-21T15:32:20;7.60;99.90
27848;DHT22;15212;48.830;8.730;2023-11-21T15:34:48;7.60;99.90
27848;DHT22;15212;48.830;8.730;2023-11-21T15:37:17;7.60;99.90
27848;DHT22;15212;48.830;8.730;2023-11-21T15:39:45;7.60;99.90
27848;DHT22;15212;48.830;8.730;2023-11-21T15:42:14;7.60;99.90
27848;DHT22;15212;48.830;8.730;2023-11-21T15:44:42;7.50;99.90
27848;DHT22;15212;48.830;8.730;2023-11-21T15:47:11;7.50;99.90
27848;DHT22;15212;48.830;8.730;2023-11-21T15:49:39;7.50;99.90
27848;DHT22;15212;48.830;8.730;2023-11-21T15:52:07;7.50;99.90
27848;DHT22;15212;48.830;8.730;2023-11-21T15:54:37;7.50;99.90
27848;DHT22;15212;48.830;8.730;2023-11-21T15:57:06;7.60;99.90
27848;DHT22;15212;48.830;8.730;2023-11-21T15:59:36;7.60;99.90
27848;DHT22;15212;48.830;8.730;2023-11-21T16:02:08;7.60;99.90
27848;DHT22;15212;48.830;8.730;2023-11-21T16:04:38;7.50;99.90
27848;DHT22;15212;48.830;8.730;2023-11-21T16:07:07;7.50;99.90
27848;DHT22;15212;48.830;8.730;2023-11-21T16:09:37;7.50;99.90
27848;DHT22;15212;48.830;8.730;2023-11-21T16:12:08;7.60;99.90